Time;durP1;ratioP1;P1;durP2;ratioP2;P2;SDS_P1;SDS_P2;PMS_P1;PMS_P2;Temp;Humidity;BMP_temperature;BMP_pressure;BME280_temperature;BME280_humidity;BME280_pressure;Samples;Min_cycle;Max_cycle;Signal;HPM_P1;HPM_P2
2021/04/01 00:01:51;;;;;;;19.85;8.98;;;;;;;18.89;45.83;101367.56;5090911;28;20056;-73
2021/04/01 00:04:18;;;;;;;15.63;7.95;;;;;;;19.05;45.49;101368.44;5066867;28;20044;-68
2021/04/01 00:06:45;;;;;;;18.50;8.13;;;;;;;18.83;45.08;101369.78;5075443;28;20048;-71
2021/04/01 00:09:33;;;;;;;13.65;7.60;;;;;;;18.77;45.56;101367.59;5068620;28;20495;-71
2021/04/01 00:12:01;;;;;;;13.80;7.40;;;;;;;18.87;46.12;101367.91;5094428;28;20486;-71
2021/04/01 00:14:28;;;;;;;19.95;8.27;;;;;;;18.88;45.95;101366.75;5095007;28;20048;-72
2021/04/01 00:17:03;;;;;;;21.90;8.15;;;;;;;18.84;45.22;101362.22;5093514;28;20056;-68
2021/04/01 00:19:35;;;;;;;18.20;8.13;;;;;;;18.88;45.36;101366.75;5093929;28;20428;-67
2021/04/01 00:22:02;;;;;;;18.95;7.70;;;;;;;18.87;45.69;101361.50;5075823;28;20638;-68
2021/04/01 00:24:29;;;;;;;22.92;7.82;;;;;;;18.91;45.89;101356.84;5094318;28;20434;-72
2021/04/01 00:27:03;;;;;;;27.17;7.78;;;;;;;18.87;45.79;101361.50;5093884;28;20052;-68
2021/04/01 00:29:35;;;;;;;14.63;6.85;;;;;;;18.77;46.48;101351.66;5094140;28;20044;-68
2021/04/01 00:32:08;;;;;;;16.50;7.38;;;;;;;18.51;46.13;101356.84;5094689;28;20048;-73
2021/04/01 00:34:36;;;;;;;19.67;7.68;;;;;;;18.46;46.57;101359.06;5060251;28;20044;-71
2021/04/01 00:37:03;;;;;;;17.92;7.40;;;;;;;18.46;46.40;101351.47;5093533;28;20055;-74
2021/04/01 00:39:36;;;;;;;21.00;8.05;;;;;;;18.51;47.15;101356.84;5075365;28;20052;-73
2021/04/01 00:42:04;;;;;;;18.70;7.47;;;;;;;18.53;46.38;101354.47;5075262;28;20419;-74
2021/04/01 00:44:31;;;;;;;18.80;7.30;;;;;;;18.53;46.61;101359.28;5075415;28;20059;-71
2021/04/01 00:47:07;;;;;;;16.80;7.32;;;;;;;18.38;47.09;101355.19;5094044;28;20055;-72
2021/04/01 00:49:39;;;;;;;16.23;6.75;;;;;;;18.56;47.16;101350.19;5057420;28;20055;-66
2021/04/01 00:52:27;;;;;;;15.13;6.82;;;;;;;18.49;47.36;101352.75;5078209;28;20052;-67
2021/04/01 00:54:54;;;;;;;16.90;7.00;;;;;;;18.72;46.90;101343.53;5094141;28;20048;-68
2021/04/01 00:57:28;;;;;;;20.30;7.30;;;;;;;18.66;45.97;101353.31;5079671;28;20577;-67
2021/04/01 00:59:55;;;;;;;17.45;6.75;;;;;;;18.52;46.41;101357.63;5105233;28;20467;-67
2021/04/01 01:02:22;;;;;;;15.40;6.47;;;;;;;18.57;47.26;101355.41;5075550;28;20044;-67
2021/04/01 01:04:50;;;;;;;17.67;6.57;;;;;;;18.51;46.32;101356.84;5089819;28;20048;-67
2021/04/01 01:07:17;;;;;;;17.13;7.18;;;;;;;18.55;47.30;101356.94;5099658;28;20063;-70
2021/04/01 01:09:44;;;;;;;17.13;6.65;;;;;;;18.53;47.20;101360.06;5083187;28;20411;-70
2021/04/01 01:12:12;;;;;;;14.07;6.30;;;;;;;18.58;46.64;101356.25;5102321;28;20415;-73
2021/04/01 01:14:38;;;;;;;13.32;6.55;;;;;;;18.45;47.21;101361.03;5092094;28;20052;-71
2021/04/01 01:17:14;;;;;;;19.08;6.53;;;;;;;18.38;47.92;101357.16;5091178;28;20059;-67
2021/04/01 01:19:49;;;;;;;13.23;6.00;;;;;;;18.35;47.54;101358.69;5081106;28;20048;-67
2021/04/01 01:22:21;;;;;;;14.15;6.60;;;;;;;18.36;47.40;101356.72;5093540;28;20047;-72
2021/04/01 01:24:49;;;;;;;15.93;6.93;;;;;;;18.40;48.05;101363.19;5092461;28;20427;-69
2021/04/01 01:27:16;;;;;;;13.13;6.50;;;;;;;18.22;47.22;101359.84;5075838;28;20048;-70
2021/04/01 01:29:50;;;;;;;13.45;5.70;;;;;;;18.47;48.17;101355.09;5093431;28;20048;-69
2021/04/01 01:32:22;;;;;;;13.93;6.30;;;;;;;18.51;47.30;101351.25;5093440;28;20052;-68
2021/04/01 01:34:48;;;;;;;17.42;6.80;;;;;;;18.39;47.34;101354.03;5092624;28;20059;-67
2021/04/01 01:37:16;;;;;;;17.90;6.70;;;;;;;18.25;47.93;101356.38;5093411;28;20048;-67
2021/04/01 01:40:09;;;;;;;14.52;6.35;;;;;;;18.32;48.21;101345.44;5075878;28;20048;-68
2021/04/01 01:42:59;;;;;;;15.30;7.07;;;;;;;18.35;47.59;101350.31;5077280;28;20039;-75
2021/04/01 01:45:29;;;;;;;13.40;6.35;;;;;;;18.24;47.39;101349.16;5075337;28;20040;-75
2021/04/01 01:48:17;;;;;;;14.35;6.72;;;;;;;18.27;48.38;101356.00;5057123;28;20382;-74
2021/04/01 01:51:02;;;;;;;16.45;6.97;;;;;;;18.34;48.53;101354.25;5079752;28;20055;-74
2021/04/01 01:53:29;;;;;;;13.50;6.50;;;;;;;18.39;48.08;101356.00;5093633;28;20048;-75
2021/04/01 01:56:05;;;;;;;15.27;7.20;;;;;;;18.35;47.80;101352.28;5091955;28;20510;-75
2021/04/01 01:58:33;;;;;;;15.63;6.50;;;;;;;18.27;48.58;101354.03;5092767;28;20479;-74
2021/04/01 02:01:02;;;;;;;19.38;7.32;;;;;;;18.17;48.01;101351.72;5091865;28;20771;-71
2021/04/01 02:03:29;;;;;;;16.17;7.07;;;;;;;18.15;48.28;101356.03;5090545;28;20051;-71
2021/04/01 02:05:56;;;;;;;14.68;6.70;;;;;;;18.03;48.60;101358.81;5091535;28;20051;-77
2021/04/01 02:08:25;;;;;;;14.45;7.10;;;;;;;18.15;48.71;101356.81;5100153;28;20055;-72
2021/04/01 02:10:56;;;;;;;15.90;7.05;;;;;;;17.97;48.48;101353.44;5091287;28;20391;-74
2021/04/01 02:13:23;;;;;;;16.42;7.55;;;;;;;17.94;49.35;101354.13;5074610;28;20186;-75
2021/04/01 02:15:55;;;;;;;15.07;6.38;;;;;;;18.10;49.57;101353.47;5092127;28;20503;-71
2021/04/01 02:18:25;;;;;;;19.42;6.53;;;;;;;18.14;49.34;101346.84;5092766;28;20082;-67
2021/04/01 02:20:55;;;;;;;16.33;6.55;;;;;;;17.99;49.38;101351.13;5092729;28;20376;-68
2021/04/01 02:23:24;;;;;;;18.27;6.80;;;;;;;18.12;49.10;101342.75;5091087;28;20075;-69
2021/04/01 02:25:53;;;;;;;17.30;7.30;;;;;;;18.05;48.57;101345.31;5092573;28;20199;-70
2021/04/01 02:28:21;;;;;;;12.95;6.68;;;;;;;18.04;48.78;101341.72;5072051;28;20052;-70
2021/04/01 02:30:52;;;;;;;15.73;7.60;;;;;;;17.97;48.49;101338.72;5089765;28;20487;-70
2021/04/01 02:33:21;;;;;;;19.13;7.03;;;;;;;17.97;48.75;101345.06;5091852;28;20048;-70
2021/04/01 02:35:49;;;;;;;15.85;6.75;;;;;;;17.96;49.75;101340.69;5091094;28;20052;-71
2021/04/01 02:38:17;;;;;;;14.45;6.50;;;;;;;18.02;48.90;101341.25;5090550;28;20048;-74
2021/04/01 02:40:56;;;;;;;14.90;7.43;;;;;;;17.89;49.92;101346.00;5090519;28;20047;-70
2021/04/01 02:43:32;;;;;;;17.23;7.38;;;;;;;17.96;49.35;101343.47;5089758;28;20040;-70
2021/04/01 02:46:04;;;;;;;14.63;7.20;;;;;;;17.94;48.85;101343.00;5091424;28;20055;-69
2021/04/01 02:48:31;;;;;;;18.90;7.32;;;;;;;17.77;49.51;101342.41;5086000;28;20055;-69
2021/04/01 02:50:58;;;;;;;14.32;6.72;;;;;;;17.90;49.56;101338.47;5089802;28;20044;-66
2021/04/01 02:53:26;;;;;;;18.35;7.53;;;;;;;17.96;49.63;101339.84;5091013;28;20040;-71
2021/04/01 02:55:55;;;;;;;17.27;7.07;;;;;;;17.92;50.34;101338.94;5073288;28;20044;-69
2021/04/01 02:58:23;;;;;;;20.65;6.97;;;;;;;17.94;50.31;101331.84;5085587;28;20047;-67
2021/04/01 03:00:52;;;;;;;21.17;6.47;;;;;;;17.70;49.24;101334.63;5073335;28;20044;-65
2021/04/01 03:03:25;;;;;;;16.08;7.05;;;;;;;17.88;50.62;101333.25;5057310;28;20063;-70
2021/04/01 03:06:02;;;;;;;16.83;6.85;;;;;;;17.71;49.96;101329.88;5074016;28;20048;-74
2021/04/01 03:08:37;;;;;;;18.85;7.22;;;;;;;17.88;50.35;101332.44;5091167;28;20059;-70
2021/04/01 03:11:04;;;;;;;17.38;7.50;;;;;;;17.86;50.21;101330.00;5090284;28;20065;-71
2021/04/01 03:13:31;;;;;;;20.60;7.10;;;;;;;17.82;49.24;101328.22;5091725;28;20044;-69
2021/04/01 03:15:58;;;;;;;19.15;7.55;;;;;;;17.85;49.85;101328.34;5073781;28;20056;-71
2021/04/01 03:18:25;;;;;;;16.33;7.57;;;;;;;17.86;49.94;101335.56;5089583;28;20066;-70
2021/04/01 03:20:52;;;;;;;17.65;7.75;;;;;;;17.85;49.93;101336.72;5090185;28;20111;-68
2021/04/01 03:23:19;;;;;;;16.33;7.00;;;;;;;17.61;49.26;101325.53;5091393;28;20400;-71
2021/04/01 03:25:46;;;;;;;13.05;7.18;;;;;;;17.80;49.86;101325.78;5090502;28;20063;-66
2021/04/01 03:28:16;;;;;;;17.27;7.27;;;;;;;17.84;50.50;101326.72;5089965;28;20065;-68
2021/04/01 03:31:01;;;;;;;18.08;8.23;;;;;;;17.87;50.18;101331.59;5073474;28;20290;-67
2021/04/01 03:33:28;;;;;;;17.63;7.15;;;;;;;17.78;49.92;101330.09;5091471;28;20059;-67
2021/04/01 03:35:55;;;;;;;14.43;7.75;;;;;;;17.76;50.74;101330.47;5073252;28;20055;-66
2021/04/01 03:38:23;;;;;;;21.55;8.13;;;;;;;17.75;50.12;101331.59;5073422;28;20051;-67
2021/04/01 03:40:53;;;;;;;19.35;7.95;;;;;;;17.70;49.77;101336.56;5095517;28;20040;-69
2021/04/01 03:43:38;;;;;;;13.05;7.60;;;;;;;17.65;50.05;101326.47;5079681;28;20032;-68
2021/04/01 03:46:07;;;;;;;18.08;7.78;;;;;;;17.62;50.78;101337.50;5094743;28;20044;-68
2021/04/01 03:48:34;;;;;;;16.80;7.82;;;;;;;17.70;50.12;101337.41;5087234;28;20081;-68
2021/04/01 03:51:01;;;;;;;15.50;7.47;;;;;;;17.72;49.77;101334.25;5092112;28;20064;-68
2021/04/01 03:53:28;;;;;;;13.82;7.38;;;;;;;17.57;50.40;101334.94;5095466;28;20048;-70
2021/04/01 03:55:55;;;;;;;17.25;7.43;;;;;;;17.46;49.65;101342.94;5093845;28;20047;-70
2021/04/01 04:11:46;;;;;;;15.77;7.38;;;;;;;17.35;50.06;101332.50;5093222;28;20048;-67
2021/04/01 04:16:41;;;;;;;15.73;7.32;;;;;;;17.34;51.37;101333.69;5095183;28;20048;-66
2021/04/01 04:19:08;;;;;;;15.25;7.68;;;;;;;17.34;50.58;101339.25;5072424;28;20040;-65
2021/04/01 04:21:36;;;;;;;22.48;7.65;;;;;;;17.41;50.68;101343.13;5067212;28;20052;-67
2021/04/01 04:24:05;;;;;;;16.83;8.13;;;;;;;17.38;52.22;101340.22;5090724;28;20044;-67
2021/04/01 04:26:33;;;;;;;;;;;;;;;17.39;50.87;101339.84;5074933;28;20517;-67
2021/04/01 04:29:01;;;;;;;18.45;7.10;;;;;;;17.32;50.42;101344.34;5073859;28;19957;-66
2021/04/01 04:31:27;;;;;;;17.33;7.15;;;;;;;17.28;51.46;101348.97;5073263;28;20052;-66
2021/04/01 04:33:54;;;;;;;17.00;6.78;;;;;;;17.26;51.33;101352.09;5070752;28;20045;-66
2021/04/01 04:36:22;;;;;;;23.83;8.30;;;;;;;17.49;51.59;101356.16;5082921;28;20071;-66
2021/04/01 04:39:07;;;;;;;15.85;7.50;;;;;;;17.10;51.40;101353.91;5059137;28;20052;-67
2021/04/01 04:41:34;;;;;;;20.42;7.82;;;;;;;17.01;52.82;101355.13;5070970;28;20048;-73
2021/04/01 04:44:01;;;;;;;19.25;7.70;;;;;;;17.31;51.99;101356.66;5076118;28;20051;-72
2021/04/01 04:46:28;;;;;;;18.23;7.93;;;;;;;17.40;51.75;101357.38;5091907;28;20055;-73
2021/04/01 04:48:55;;;;;;;16.70;7.60;;;;;;;17.28;50.54;101354.53;5075445;28;20060;-74
2021/04/01 04:51:22;;;;;;;22.98;7.80;;;;;;;17.27;52.16;101358.50;5054139;28;20546;-67
2021/04/01 04:53:50;;;;;;;18.38;7.60;;;;;;;17.47;50.73;101355.69;5092921;28;20040;-66
2021/04/01 04:56:20;;;;;;;25.80;8.27;;;;;;;17.48;51.02;101359.28;5054867;28;20052;-67
2021/04/01 05:08:56;;;;;;;25.60;8.77;;;;;;;17.27;51.01;101372.41;5081537;28;20051;-69
2021/04/01 05:11:25;;;;;;;16.75;7.68;;;;;;;16.99;51.66;101369.41;5093256;28;20062;-71
2021/04/01 05:13:52;;;;;;;20.60;8.57;;;;;;;17.01;52.89;101372.66;5089009;28;20053;-67
2021/04/01 05:16:19;;;;;;;26.38;8.77;;;;;;;16.96;52.35;101377.63;5046225;28;20044;-68
2021/04/01 05:18:47;;;;;;;20.58;7.75;;;;;;;16.82;52.48;101362.00;5089937;28;20554;-70
2021/04/01 05:21:15;;;;;;;21.90;8.10;;;;;;;16.98;52.65;101378.88;5064652;28;20115;-68
2021/04/01 05:23:48;;;;;;;16.67;7.45;;;;;;;17.11;51.79;101369.44;5085590;28;20051;-68
2021/04/01 05:28:45;;;;;;;22.58;7.90;;;;;;;17.02;51.50;101376.25;5084860;28;20063;-68
2021/04/01 05:31:29;;;;;;;25.33;8.35;;;;;;;17.04;52.42;101383.09;5089328;28;20040;-66
2021/04/01 05:33:59;;;;;;;22.38;8.20;;;;;;;17.04;51.81;101380.31;5087693;28;20043;-67
2021/04/01 05:36:28;;;;;;;22.20;9.32;;;;;;;16.98;53.53;101378.88;5078786;28;20041;-67
2021/04/01 05:38:57;;;;;;;21.02;8.75;;;;;;;17.06;52.31;101380.81;5076104;28;20051;-68
2021/04/01 05:41:29;;;;;;;30.48;10.00;;;;;;;17.24;52.57;101381.47;5054310;28;20063;-69
2021/04/01 05:46:32;;;;;;;26.05;11.63;;;;;;;17.30;52.61;101389.25;5082887;28;20040;-69
2021/04/01 05:52:33;;;;;;;25.52;10.10;;;;;;;16.77;52.35;101392.00;5009631;28;20053;-67
2021/04/01 06:01:24;;;;;;;19.17;9.73;;;;;;;17.04;51.96;101402.59;5009234;28;20068;-67
2021/04/01 06:04:29;;;;;;;27.23;10.32;;;;;;;16.95;52.87;101401.84;5010085;28;20046;-70
2021/04/01 06:07:32;;;;;;;23.25;10.80;;;;;;;16.63;53.11;101400.59;4952742;28;20047;-68
2021/04/01 06:10:00;;;;;;;23.50;10.25;;;;;;;16.71;53.61;101401.69;4970552;28;20055;-66
2021/04/01 06:12:30;;;;;;;23.42;9.70;;;;;;;16.81;53.36;101399.34;4991510;28;20050;-69
2021/04/01 06:14:58;;;;;;;;;;;;;;;16.86;52.39;101404.69;5010666;28;20058;-67
2021/04/01 06:17:32;;;;;;;26.05;10.32;;;;;;;16.84;51.86;101395.88;4978526;28;19931;-66
2021/04/01 06:20:01;;;;;;;23.15;10.57;;;;;;;16.90;53.17;101404.84;4993254;28;20494;-69
2021/04/01 06:22:29;;;;;;;23.13;10.07;;;;;;;17.00;53.03;101398.84;4993707;28;20468;-68
2021/04/01 06:24:56;;;;;;;25.30;10.00;;;;;;;16.87;53.13;101408.28;5011203;28;20473;-67
2021/04/01 06:27:28;;;;;;;22.15;9.93;;;;;;;16.65;53.33;101403.03;5013649;28;20058;-67
2021/04/01 06:30:26;;;;;;;25.00;10.60;;;;;;;16.59;52.46;101410.78;5069872;28;20053;-68
2021/04/01 06:33:12;;;;;;;27.92;10.68;;;;;;;16.61;52.42;101404.88;5066409;28;20063;-67
2021/04/01 06:35:56;;;;;;;;;;;;;;;16.58;53.00;101402.78;5055341;28;20048;-70
2021/04/01 06:38:25;;;;;;;31.08;10.95;;;;;;;16.67;53.33;101404.34;5072646;28;20387;-64
2021/04/01 06:41:21;;;;;;;34.90;11.40;;;;;;;16.47;53.68;101409.88;5067215;28;20472;-66
2021/04/01 06:44:22;;;;;;;35.03;11.80;;;;;;;16.66;60.73;101407.47;5068586;28;20052;-65
2021/04/01 06:47:08;;;;;;;38.67;11.82;;;;;;;16.84;60.85;101409.78;5083824;28;20078;-66
2021/04/01 06:50:14;;;;;;;38.70;11.35;;;;;;;16.57;55.73;101409.47;5053021;28;20051;-69
2021/04/01 06:52:49;;;;;;;28.13;11.73;;;;;;;16.26;56.86;101411.75;5068629;28;20037;-67
2021/04/01 06:55:49;;;;;;;35.90;12.10;;;;;;;16.65;60.24;101406.63;5061042;28;20049;-66
2021/04/01 06:58:36;;;;;;;29.83;12.67;;;;;;;17.12;62.92;101403.69;5075634;28;20047;-66
2021/04/01 07:01:37;;;;;;;37.90;11.93;;;;;;;16.95;59.25;101407.41;5049898;28;20310;-66
2021/04/01 07:04:29;;;;;;;28.48;12.30;;;;;;;17.13;56.86;101403.34;5081116;28;20032;-67
2021/04/01 07:07:03;;;;;;;33.60;12.30;;;;;;;17.07;59.62;101403.91;5071238;28;20059;-70
2021/04/01 07:12:26;;;;;;;30.05;11.55;;;;;;;17.03;58.72;101411.28;5054856;28;20037;-73
2021/04/01 07:14:58;;;;;;;29.45;12.15;;;;;;;17.01;58.37;101410.81;5072343;28;20048;-72
2021/04/01 07:17:39;;;;;;;35.35;13.10;;;;;;;17.21;57.06;101410.00;5069774;28;20040;-72
2021/04/01 07:49:02;;;;;;;47.53;15.07;;;;;;;18.17;53.09;101417.81;5064562;28;20045;-71
2021/04/01 07:54:40;;;;;;;34.17;13.55;;;;;;;18.39;55.07;101422.94;5070718;28;20052;-68
2021/04/01 08:05:28;;;;;;;36.80;13.93;;;;;;;18.86;52.96;101432.47;5066612;28;20041;-72
2021/04/01 08:08:05;;;;;;;34.75;15.13;;;;;;;18.71;49.94;101434.00;5051123;28;20048;-70
2021/04/01 08:10:38;;;;;;;32.55;14.52;;;;;;;18.33;50.28;101427.94;5068462;28;20052;-65
2021/04/01 08:13:11;;;;;;;36.47;14.60;;;;;;;18.38;49.04;101427.72;5060607;28;20515;-67
2021/04/01 08:15:49;;;;;;;44.80;16.88;;;;;;;18.14;48.99;101430.50;5049535;28;20044;-67
2021/04/01 08:18:27;;;;;;;36.83;15.05;;;;;;;18.61;48.54;101434.47;5060539;28;20424;-67
2021/04/01 08:21:01;;;;;;;52.08;16.33;;;;;;;18.07;48.74;101444.19;5059965;28;20045;-68
2021/04/01 08:23:58;;;;;;;34.25;16.27;;;;;;;17.48;49.66;101442.84;5065367;28;20385;-65
2021/04/01 08:27:05;;;;;;;36.47;15.55;;;;;;;17.67;49.05;101443.97;5070191;28;20040;-72
2021/04/01 08:35:58;;;;;;;31.75;15.65;;;;;;;18.50;49.25;101432.50;5045930;28;20052;-69
2021/04/01 08:38:46;;;;;;;40.97;16.60;;;;;;;18.75;47.94;101431.31;5057237;28;20064;-68
2021/04/01 08:41:42;;;;;;;39.40;15.95;;;;;;;18.68;47.49;101439.47;5077143;28;20397;-70
2021/04/01 08:45:18;;;;;;;42.15;15.60;;;;;;;18.65;47.03;101438.22;5095120;28;20456;-76
2021/04/01 08:48:24;;;;;;;35.83;17.13;;;;;;;18.15;48.50;101431.31;5071494;28;20044;-73
2021/04/01 08:51:03;;;;;;;36.10;17.13;;;;;;;18.24;47.89;101434.78;5071815;28;20056;-71
2021/04/01 08:54:14;;;;;;;41.33;17.95;;;;;;;18.20;47.80;101440.25;5074074;28;20037;-69
2021/04/01 08:56:50;;;;;;;;;;;;;;;18.85;46.70;101434.44;5076239;28;20063;-76
2021/04/01 08:59:28;;;;;;;32.65;16.98;;;;;;;19.46;45.73;101431.50;5104521;28;19920;-70
2021/04/01 09:01:59;;;;;;;41.92;17.85;;;;;;;19.60;44.83;101435.50;5062138;28;20495;-77
2021/04/01 09:04:33;;;;;;;52.97;18.02;;;;;;;19.39;44.82;101440.50;5073123;28;20033;-74
2021/04/01 09:07:10;;;;;;;34.78;16.92;;;;;;;19.62;44.94;101429.56;5079236;28;20067;-71
2021/04/01 09:09:39;;;;;;;37.60;17.48;;;;;;;19.81;44.80;101438.91;5054149;28;20048;-77
2021/04/01 09:15:05;;;;;;;48.38;20.80;;;;;;;19.31;43.92;101437.84;5062322;28;20055;-71
2021/04/01 09:17:36;;;;;;;41.47;19.33;;;;;;;19.25;45.76;101442.03;5052538;28;20043;-73
2021/04/01 09:20:18;;;;;;;53.40;19.95;;;;;;;19.44;44.39;101440.22;5073573;28;20060;-68
2021/04/01 09:22:56;;;;;;;54.03;21.10;;;;;;;19.78;44.48;101442.41;5057250;28;20060;-73
2021/04/01 09:25:36;;;;;;;51.22;21.00;;;;;;;19.81;43.56;101427.72;5054774;28;20064;-72
2021/04/01 09:28:08;;;;;;;41.13;20.08;;;;;;;20.17;43.40;101437.06;5075540;28;20055;-65
2021/04/01 09:30:37;;;;;;;60.13;22.10;;;;;;;19.85;42.19;101442.63;5071390;28;20056;-68
2021/04/01 09:33:10;;;;;;;58.53;20.95;;;;;;;19.69;42.43;101441.75;5071413;28;20067;-67
2021/04/01 09:35:38;;;;;;;60.05;20.70;;;;;;;19.81;42.14;101447.28;5053462;28;20052;-66
2021/04/01 09:38:09;;;;;;;55.05;22.58;;;;;;;19.90;41.69;101447.94;5070429;28;20052;-66
2021/04/01 09:40:41;;;;;;;57.35;21.45;;;;;;;19.91;41.77;101449.56;5069538;28;20075;-67
2021/04/01 09:43:19;;;;;;;56.72;21.75;;;;;;;20.16;41.14;101430.66;5072025;28;20045;-71
2021/04/01 09:45:57;;;;;;;55.22;22.30;;;;;;;19.63;41.76;101440.38;5070863;28;20040;-73
2021/04/01 09:48:26;;;;;;;53.33;22.17;;;;;;;19.78;41.76;101436.00;5063360;28;20060;-74
2021/04/01 09:50:59;;;;;;;;;;;;;;;19.89;41.25;101426.72;5058210;28;20491;-73
2021/04/01 09:53:29;;;;;;;67.00;23.73;;;;;;;20.18;40.61;101433.91;5053810;28;20028;-74
2021/04/01 09:55:58;;;;;;;56.42;22.13;;;;;;;20.20;40.84;101434.38;5072387;28;20041;-67
2021/04/01 09:58:33;;;;;;;55.95;21.27;;;;;;;20.31;40.24;101435.44;5074963;28;20147;-69
2021/04/01 10:04:15;;;;;;;66.72;23.83;;;;;;;20.67;39.09;101437.13;5062435;28;20060;-67
2021/04/01 10:06:43;;;;;;;54.03;23.35;;;;;;;20.78;39.46;101441.78;5086978;28;20044;-67
2021/04/01 10:09:12;;;;;;;56.58;23.92;;;;;;;20.94;38.94;101438.94;5057384;28;20045;-71
2021/04/01 10:11:48;;;;;;;61.80;23.38;;;;;;;20.65;38.92;101439.47;5072099;28;20063;-69
2021/04/01 10:14:18;;;;;;;62.28;23.05;;;;;;;20.93;38.62;101440.13;5056522;28;20048;-68
2021/04/01 10:16:55;;;;;;;60.28;21.67;;;;;;;20.87;38.25;101445.22;5058163;28;20059;-67
2021/04/01 10:19:34;;;;;;;55.85;21.30;;;;;;;21.02;38.41;101443.59;5054861;28;20055;-65
2021/04/01 10:22:01;;;;;;;51.17;22.15;;;;;;;21.13;38.28;101436.22;5067071;28;20040;-67
2021/04/01 10:24:36;;;;;;;56.80;22.85;;;;;;;21.13;38.11;101437.03;5048175;28;20072;-67
2021/04/01 10:27:27;;;;;;;54.95;19.52;;;;;;;21.02;37.84;101427.59;5057616;28;20033;-65
2021/04/01 10:33:15;;;;;;;45.95;18.45;;;;;;;21.08;37.53;101436.50;5061959;28;20477;-67
2021/04/01 10:35:42;;;;;;;49.63;18.60;;;;;;;21.27;36.96;101437.34;4991215;28;20058;-69
2021/04/01 10:38:13;;;;;;;46.42;17.08;;;;;;;21.34;36.34;101441.47;4983760;28;20053;-70
2021/04/01 10:40:40;;;;;;;45.33;17.70;;;;;;;21.46;35.59;101430.94;4994559;28;20406;-69
2021/04/01 10:43:32;;;;;;;39.90;16.75;;;;;;;21.65;35.80;101421.69;5008948;28;20045;-70
2021/04/01 10:46:03;;;;;;;43.65;16.48;;;;;;;21.53;35.76;101419.84;5010415;28;20501;-72
2021/04/01 10:48:34;;;;;;;46.83;16.40;;;;;;;21.45;36.04;101423.69;5016524;28;20524;-66
2021/04/01 10:51:03;;;;;;;43.88;14.98;;;;;;;21.45;35.70;101411.66;5006781;28;20053;-70
2021/04/01 10:53:31;;;;;;;39.75;15.52;;;;;;;21.60;35.07;101405.97;5015874;28;20058;-70
2021/04/01 10:56:05;;;;;;;41.92;15.82;;;;;;;21.84;34.55;101402.03;5009252;28;20057;-70
2021/04/01 10:58:32;;;;;;;41.83;14.80;;;;;;;22.01;34.07;101402.38;4992860;28;20061;-69
2021/04/01 11:01:20;;;;;;;44.08;14.50;;;;;;;22.11;33.18;101412.97;5003859;28;20510;-66
2021/04/01 11:03:54;;;;;;;49.53;15.15;;;;;;;22.10;33.79;101394.53;4990783;28;20054;-68
2021/04/01 11:06:24;;;;;;;37.28;14.05;;;;;;;22.13;33.07;101399.38;5017409;28;20053;-69
2021/04/01 11:09:11;;;;;;;38.03;13.77;;;;;;;21.94;32.34;101405.03;4993776;28;20379;-72
2021/04/01 11:14:36;;;;;;;34.55;13.30;;;;;;;22.06;33.17;101402.06;5028885;28;20045;-68
2021/04/01 11:17:07;;;;;;;39.47;13.52;;;;;;;22.35;32.75;101392.91;5051054;28;20072;-68
2021/04/01 11:19:35;;;;;;;36.65;12.77;;;;;;;22.29;32.86;101393.63;5063133;28;20501;-70
2021/04/01 11:22:09;;;;;;;36.88;12.75;;;;;;;22.40;32.46;101402.22;5064646;28;20265;-74
2021/04/01 11:24:38;;;;;;;35.70;13.60;;;;;;;22.09;32.99;101403.28;5033182;28;20052;-66
2021/04/01 11:27:09;;;;;;;27.35;13.32;;;;;;;22.10;33.42;101390.88;5056996;28;20045;-71
2021/04/01 11:29:37;;;;;;;36.33;13.30;;;;;;;22.09;33.41;101389.25;5068702;28;20067;-73
2021/04/01 11:32:20;;;;;;;35.85;13.48;;;;;;;22.12;32.83;101383.69;5069154;28;20049;-68
2021/04/01 11:34:50;;;;;;;37.53;12.85;;;;;;;22.26;32.89;101392.34;5053695;28;20052;-73
2021/04/01 11:37:22;;;;;;;35.25;13.18;;;;;;;22.25;32.97;101381.50;5060997;28;20048;-70
2021/04/01 11:40:00;;;;;;;30.33;13.00;;;;;;;22.42;33.07;101383.78;5060803;28;20051;-70
2021/04/01 11:42:27;;;;;;;38.30;13.85;;;;;;;22.39;33.12;101378.16;5065489;28;20045;-70
2021/04/01 11:44:59;;;;;;;35.92;13.70;;;;;;;22.40;33.60;101377.75;5054250;28;20052;-73
2021/04/01 11:47:29;;;;;;;34.80;13.68;;;;;;;22.40;33.71;101374.97;5056632;28;20045;-72
2021/04/01 11:49:57;;;;;;;36.53;13.10;;;;;;;22.50;34.03;101379.09;5048749;28;20500;-76
2021/04/01 11:52:24;;;;;;;34.70;13.43;;;;;;;22.38;34.30;101374.53;5036193;28;20049;-71
2021/04/01 11:55:10;;;;;;;41.58;14.23;;;;;;;22.65;33.40;101366.94;5050235;28;20400;-67
2021/04/01 11:57:42;;;;;;;35.00;13.73;;;;;;;22.65;31.98;101378.97;5070592;28;20048;-73
2021/04/01 12:00:13;;;;;;;32.70;13.48;;;;;;;22.83;31.70;101363.19;5071491;28;20056;-71
2021/04/01 12:03:00;;;;;;;29.75;14.48;;;;;;;22.92;31.57;101363.72;5046922;28;20404;-70
2021/04/01 12:05:30;;;;;;;28.02;12.95;;;;;;;22.98;30.83;101373.41;5054301;28;20664;-69
2021/04/01 12:08:00;;;;;;;32.42;14.27;;;;;;;22.94;30.96;101363.34;5063664;28;20048;-71
2021/04/01 12:10:34;;;;;;;27.75;13.02;;;;;;;22.98;30.75;101364.19;5054746;28;20095;-71
2021/04/01 12:13:01;;;;;;;29.80;11.93;;;;;;;23.31;31.64;101350.97;5066854;28;20049;-67
2021/04/01 12:15:28;;;;;;;25.30;12.63;;;;;;;23.16;30.83;101357.59;5069021;28;20055;-66
2021/04/01 12:17:56;;;;;;;30.13;13.50;;;;;;;23.15;30.69;101358.78;5053048;28;20055;-66
2021/04/01 12:20:26;;;;;;;30.02;14.30;;;;;;;23.32;30.22;101360.22;5067979;28;20159;-71
2021/04/01 12:23:19;;;;;;;30.67;12.07;;;;;;;23.27;31.03;101354.91;5061727;28;20049;-70
2021/04/01 12:26:02;;;;;;;24.20;11.88;;;;;;;23.12;30.19;101350.28;5063728;28;20063;-65
2021/04/01 12:28:35;;;;;;;34.10;13.65;;;;;;;23.24;30.12;101342.41;5073786;28;20063;-70
2021/04/01 12:31:03;;;;;;;34.20;14.35;;;;;;;23.37;29.66;101355.06;5079817;28;20078;-67
2021/04/01 12:33:30;;;;;;;29.10;13.73;;;;;;;23.22;30.14;101349.63;5054965;28;20056;-72
2021/04/01 12:36:16;;;;;;;30.23;14.13;;;;;;;23.37;29.97;101345.81;5048242;28;20052;-69
2021/04/01 12:38:46;;;;;;;29.83;13.73;;;;;;;23.52;29.70;101341.94;5062500;28;20119;-67
2021/04/01 12:41:29;;;;;;;29.77;14.23;;;;;;;23.28;29.52;101336.88;5064340;28;20049;-69
2021/04/01 12:43:59;;;;;;;26.75;12.40;;;;;;;23.34;29.66;101329.72;5067379;28;20051;-70
2021/04/01 12:46:47;;;;;;;30.98;13.90;;;;;;;23.50;29.28;101332.31;5054958;28;20048;-66
2021/04/01 12:49:16;;;;;;;30.08;14.85;;;;;;;23.41;29.24;101324.97;5071584;28;20061;-67
2021/04/01 12:51:59;;;;;;;33.47;15.35;;;;;;;23.30;29.06;101324.06;5069981;28;20056;-68
2021/04/01 12:54:35;;;;;;;33.40;14.52;;;;;;;23.68;29.06;101330.47;5066645;28;20047;-70
2021/04/01 12:57:06;;;;;;;30.75;12.43;;;;;;;23.69;28.48;101332.09;5048499;28;20059;-70
2021/04/01 12:59:48;;;;;;;30.52;13.85;;;;;;;23.63;28.98;101330.81;5042509;28;20044;-69
2021/04/01 13:02:21;;;;;;;35.17;13.05;;;;;;;23.70;29.13;101334.50;5066087;28;20048;-71
2021/04/01 13:05:07;;;;;;;32.55;13.82;;;;;;;23.65;28.76;101332.06;5055429;28;20048;-71
2021/04/01 13:07:52;;;;;;;30.13;13.65;;;;;;;23.78;28.43;101327.75;5069305;28;20051;-68
2021/04/01 13:12:52;;;;;;;27.48;13.10;;;;;;;23.91;27.78;101317.81;5070984;28;20056;-67
2021/04/01 13:15:24;;;;;;;;;;;;;;;23.85;28.28;101330.63;5078689;28;20498;-67
2021/04/01 13:17:51;;;;;;;28.65;14.10;;;;;;;23.84;28.22;101329.03;5069327;28;20379;-66
2021/04/01 13:20:42;;;;;;;26.90;13.68;;;;;;;24.27;28.18;101325.38;5062973;28;20388;-67
2021/04/01 13:23:12;;;;;;;25.80;12.52;;;;;;;24.00;27.21;101323.16;5080159;28;20051;-68
2021/04/01 13:25:44;;;;;;;23.63;11.23;;;;;;;24.05;26.82;101320.78;5080876;28;20048;-66
2021/04/01 13:28:14;;;;;;;30.80;13.95;;;;;;;24.12;27.05;101314.41;5065406;28;20064;-68
2021/04/01 13:30:43;;;;;;;28.65;12.75;;;;;;;24.37;27.37;101323.84;5071898;28;20055;-68